Time;durP1;ratioP1;P1;durP2;ratioP2;P2;SDS_P1;SDS_P2;PMS_P1;PMS_P2;Temp;Humidity;BMP_temperature;BMP_pressure;BME280_temperature;BME280_humidity;BME280_pressure;Samples;Min_cycle;Max_cycle;Signal;HPM_P1;HPM_P2
2023/05/24 15:51:10;;;;;;;114.70;107.80;;;;;;;;;;6248554;22;1218238;-88
2023/05/24 15:53:36;;;;;;;239.02;224.90;;;;;;;;;;6249727;22;20350;-88
2023/05/24 15:56:02;;;;;;;232.48;218.88;;;;;;;;;;6275013;22;20090;-86
2023/05/24 15:58:28;;;;;;;298.17;280.80;;;;;;;;;;6273887;22;20011;-90
2023/05/24 16:00:54;;;;;;;325.15;305.50;;;;;;;;;;6278104;22;20039;-91
2023/05/24 16:03:20;;;;;;;269.02;252.35;;;;;;;;;;6306140;22;20488;-90
2023/05/24 16:05:50;;;;;;;367.83;345.13;;;;;;;;;;6252828;22;20018;-89
2023/05/24 16:08:16;;;;;;;369.65;346.73;;;;;;;;;;6278562;22;20019;-90
2023/05/24 16:10:43;;;;;;;403.15;377.38;;;;;;;;;;6279650;22;20017;-90
2023/05/24 16:13:09;;;;;;;385.95;362.25;;;;;;;;;;6252849;22;20015;-90
2023/05/24 16:15:36;;;;;;;439.02;410.77;;;;;;;;;;6278850;22;20016;-90
2023/05/24 16:18:03;;;;;;;436.27;408.00;;;;;;;;;;6279405;22;20086;-92
2023/05/24 16:20:30;;;;;;;429.40;401.90;;;;;;;;;;6279054;22;20502;-89
2023/05/24 16:22:56;;;;;;;440.00;412.23;;;;;;;;;;6278931;22;20011;-88
2023/05/24 16:25:22;;;;;;;407.75;382.40;;;;;;;;;;6252872;22;20110;-89
2023/05/24 16:27:48;;;;;;;462.10;432.20;;;;;;;;;;6306254;22;20145;-91
2023/05/24 16:30:14;;;;;;;411.98;385.45;;;;;;;;;;6277662;22;20428;-85
2023/05/24 16:32:40;;;;;;;367.35;344.73;;;;;;;;;;6277790;22;20401;-90
2023/05/24 16:35:07;;;;;;;380.13;356.20;;;;;;;;;;6306370;22;20058;-89
2023/05/24 16:37:33;;;;;;;325.75;305.58;;;;;;;;;;6278456;22;20015;-88
2023/05/24 16:40:00;;;;;;;333.20;312.48;;;;;;;;;;6279492;22;20089;-90
2023/05/24 16:42:26;;;;;;;326.15;306.05;;;;;;;;;;6278162;22;20016;-90
2023/05/24 16:44:52;;;;;;;204.88;192.63;;;;;;;;;;6278435;22;20007;-91
2023/05/24 16:47:17;;;;;;;56.45;52.42;;;;;;;;;;6278180;22;20023;-87
2023/05/24 16:49:43;;;;;;;41.67;38.72;;;;;;;;;;6277267;22;20098;-87
2023/05/24 16:52:10;;;;;;;11.70;4.80;;;;;;;;;;6277763;22;20023;-86
2023/05/24 16:54:36;;;;;;;12.32;3.85;;;;;;;;;;6283417;22;20538;-86
2023/05/24 16:57:02;;;;;;;10.57;3.97;;;;;;;;;;6282726;22;20473;-85
2023/05/24 16:59:28;;;;;;;10.55;5.22;;;;;;;;;;6310182;22;20038;-90
2023/05/24 17:01:54;;;;;;;14.32;7.78;;;;;;;;;;6282951;22;20007;-87
2023/05/24 17:04:20;;;;;;;10.20;4.35;;;;;;;;;;6254095;22;20011;-83
2023/05/24 17:06:46;;;;;;;9.82;3.30;;;;;;;;;;6256197;22;20074;-89
2023/05/24 17:09:12;;;;;;;10.43;3.83;;;;;;;;;;6280933;22;20012;-87
2023/05/24 17:11:38;;;;;;;10.45;3.75;;;;;;;;;;6309623;22;20021;-86
2023/05/24 17:14:04;;;;;;;13.45;4.03;;;;;;;;;;6257593;22;20007;-87
2023/05/24 17:16:30;;;;;;;11.77;4.05;;;;;;;;;;6256233;22;20015;-87
2023/05/24 17:18:56;;;;;;;10.23;4.45;;;;;;;;;;6311272;22;20071;-86
2023/05/24 17:21:26;;;;;;;11.65;7.05;;;;;;;;;;6258396;22;20018;-86
2023/05/24 17:23:52;;;;;;;13.35;9.23;;;;;;;;;;6282952;22;20011;-87
2023/05/24 17:26:18;;;;;;;15.00;11.68;;;;;;;;;;6257464;22;20015;-86
2023/05/24 17:28:44;;;;;;;14.38;12.82;;;;;;;;;;6283701;22;20011;-86
2023/05/24 17:31:14;;;;;;;16.00;11.85;;;;;;;;;;6257508;22;20291;-86
2023/05/24 17:33:40;;;;;;;15.88;14.20;;;;;;;;;;6258860;22;20049;-86
2023/05/24 17:36:08;;;;;;;13.45;11.75;;;;;;;;;;6256987;22;20015;-85
2023/05/24 17:38:36;;;;;;;18.67;12.60;;;;;;;;;;6257753;22;20076;-85
2023/05/24 17:41:02;;;;;;;17.63;15.00;;;;;;;;;;6257794;22;20016;-87
2023/05/24 17:43:30;;;;;;;15.85;13.63;;;;;;;;;;6313311;22;20333;-85
2023/05/24 17:46:04;;;;;;;16.08;13.63;;;;;;;;;;6281936;22;20473;-86
2023/05/24 17:48:37;;;;;;;14.45;10.35;;;;;;;;;;6283032;22;20121;-86
2023/05/24 17:51:04;;;;;;;15.05;9.73;;;;;;;;;;6283636;22;20015;-86
2023/05/24 17:53:33;;;;;;;15.57;9.93;;;;;;;;;;6283294;22;20015;-86
2023/05/24 17:55:59;;;;;;;13.63;9.00;;;;;;;;;;6284200;22;20018;-86
2023/05/24 17:58:25;;;;;;;17.25;10.07;;;;;;;;;;6284861;22;20041;-87
2023/05/24 18:00:52;;;;;;;12.85;8.10;;;;;;;;;;6284325;22;20011;-87
2023/05/24 18:03:18;;;;;;;13.23;6.50;;;;;;;;;;6282958;22;20015;-86
2023/05/24 18:05:44;;;;;;;13.98;6.10;;;;;;;;;;6257394;22;20085;-85
2023/05/24 18:08:10;;;;;;;11.43;6.50;;;;;;;;;;6257131;22;20056;-86
2023/05/24 18:10:36;;;;;;;17.48;5.57;;;;;;;;;;6284329;22;20082;-87
2023/05/24 18:13:06;;;;;;;11.73;5.63;;;;;;;;;;6310600;22;20008;-86
2023/05/24 18:15:32;;;;;;;12.18;5.18;;;;;;;;;;6310550;22;20058;-86
2023/05/24 18:17:58;;;;;;;10.65;4.45;;;;;;;;;;6256857;22;20022;-86
2023/05/24 18:20:24;;;;;;;10.43;4.78;;;;;;;;;;6258189;22;20019;-85
2023/05/24 18:22:50;;;;;;;10.43;4.32;;;;;;;;;;6256520;22;20007;-86
2023/05/24 18:25:16;;;;;;;9.43;4.07;;;;;;;;;;6281963;22;20528;-87
2023/05/24 18:27:43;;;;;;;11.95;3.75;;;;;;;;;;6255360;22;20011;-86
2023/05/24 18:30:09;;;;;;;9.57;3.65;;;;;;;;;;6308785;22;20012;-87
2023/05/24 18:32:35;;;;;;;9.00;3.97;;;;;;;;;;6255397;22;20011;-87
2023/05/24 18:35:02;;;;;;;10.93;4.35;;;;;;;;;;6282951;22;20019;-86
2023/05/24 18:37:28;;;;;;;10.35;3.80;;;;;;;;;;6283066;22;20044;-87
2023/05/24 18:39:54;;;;;;;7.63;3.60;;;;;;;;;;6281670;22;20084;-87
2023/05/24 18:42:20;;;;;;;10.68;3.63;;;;;;;;;;6283284;22;20034;-87
2023/05/24 18:44:46;;;;;;;10.45;3.75;;;;;;;;;;6257663;22;20394;-87
2023/05/24 18:47:12;;;;;;;8.50;3.35;;;;;;;;;;6257690;22;20018;-90
2023/05/24 18:49:38;;;;;;;10.40;4.60;;;;;;;;;;6282513;22;20011;-86
2023/05/24 18:52:05;;;;;;;8.40;4.05;;;;;;;;;;6255755;22;20094;-85
2023/05/24 18:54:30;;;;;;;10.20;4.93;;;;;;;;;;6281629;22;20084;-84
2023/05/24 18:57:00;;;;;;;10.18;6.07;;;;;;;;;;6255607;22;20011;-87
2023/05/24 18:59:28;;;;;;;9.63;6.38;;;;;;;;;;6282465;22;20015;-84
2023/05/24 19:02:01;;;;;;;13.52;6.00;;;;;;;;;;6278847;22;20137;-87
2023/05/24 19:04:27;;;;;;;14.05;12.10;;;;;;;;;;6279666;22;20007;-87
2023/05/24 19:06:53;;;;;;;18.55;15.60;;;;;;;;;;6281965;22;20007;-84
2023/05/24 19:09:19;;;;;;;18.02;13.98;;;;;;;;;;6253338;22;20519;-85
2023/05/24 19:11:45;;;;;;;19.75;17.98;;;;;;;;;;6254612;22;20011;-86
2023/05/24 19:14:12;;;;;;;19.70;17.77;;;;;;;;;;6254394;22;20446;-86
2023/05/24 19:16:38;;;;;;;22.80;20.83;;;;;;;;;;6257203;22;20098;-86
2023/05/24 19:19:04;;;;;;;27.50;24.88;;;;;;;;;;6252511;22;20011;-85
2023/05/24 19:21:31;;;;;;;28.80;26.40;;;;;;;;;;6254622;22;20312;-85
2023/05/24 19:23:58;;;;;;;30.40;27.92;;;;;;;;;;6254957;22;20015;-83
2023/05/24 19:26:24;;;;;;;34.08;31.08;;;;;;;;;;6281335;22;20011;-85
2023/05/24 19:28:52;;;;;;;33.15;30.73;;;;;;;;;;6280882;22;20011;-85
2023/05/24 19:31:18;;;;;;;27.08;24.88;;;;;;;;;;6281069;22;20011;-84
2023/05/24 19:33:46;;;;;;;21.70;19.77;;;;;;;;;;6308671;22;20007;-85
2023/05/24 19:36:12;;;;;;;21.95;20.15;;;;;;;;;;6280456;22;20011;-85
2023/05/24 19:38:39;;;;;;;16.65;14.50;;;;;;;;;;6253510;22;20022;-84
2023/05/24 19:41:05;;;;;;;18.90;15.32;;;;;;;;;;6306426;22;20014;-84
2023/05/24 19:43:31;;;;;;;18.05;11.10;;;;;;;;;;6251887;22;20014;-86
2023/05/24 19:45:57;;;;;;;16.48;10.38;;;;;;;;;;6256752;22;20015;-88
2023/05/24 19:48:23;;;;;;;14.40;9.25;;;;;;;;;;6312974;22;20214;-87
2023/05/24 19:50:50;;;;;;;18.00;11.35;;;;;;;;;;6255117;22;20023;-88
2023/05/24 19:53:16;;;;;;;15.38;9.40;;;;;;;;;;6282761;22;20015;-88
2023/05/24 19:55:42;;;;;;;20.45;10.90;;;;;;;;;;6283403;22;20015;-86
2023/05/24 19:58:08;;;;;;;13.52;10.05;;;;;;;;;;6281399;22;20011;-88
2023/05/24 20:00:34;;;;;;;14.32;9.18;;;;;;;;;;6283165;22;20022;-87
2023/05/24 20:03:00;;;;;;;14.57;11.18;;;;;;;;;;6258478;22;20015;-87
2023/05/24 20:05:26;;;;;;;13.25;10.05;;;;;;;;;;6282927;22;20076;-87
2023/05/24 20:07:52;;;;;;;15.38;9.38;;;;;;;;;;6282364;22;20445;-88
2023/05/24 20:10:18;;;;;;;15.50;10.07;;;;;;;;;;6256372;22;20018;-88
2023/05/24 20:12:44;;;;;;;18.90;11.98;;;;;;;;;;6255997;22;20031;-87
2023/05/24 20:15:11;;;;;;;15.13;12.88;;;;;;;;;;6281014;22;20019;-86
2023/05/24 20:17:37;;;;;;;18.98;11.25;;;;;;;;;;6306616;22;20098;-87
2023/05/24 20:20:03;;;;;;;17.63;12.73;;;;;;;;;;6275550;22;20015;-87
2023/05/24 20:22:29;;;;;;;21.48;14.02;;;;;;;;;;6275727;22;20033;-87
2023/05/24 20:24:55;;;;;;;15.38;11.80;;;;;;;;;;6302853;22;20018;-86
2023/05/24 20:27:21;;;;;;;17.55;9.98;;;;;;;;;;6275532;22;20059;-87
2023/05/24 20:29:47;;;;;;;15.68;9.52;;;;;;;;;;6251236;22;20026;-87
2023/05/24 20:32:13;;;;;;;17.23;9.00;;;;;;;;;;6251184;22;20019;-87
2023/05/24 20:34:39;;;;;;;19.35;10.25;;;;;;;;;;6251811;22;20007;-87
2023/05/24 20:37:05;;;;;;;16.10;8.55;;;;;;;;;;6251764;22;20069;-87
2023/05/24 20:39:32;;;;;;;12.48;7.35;;;;;;;;;;6277722;22;20018;-86
2023/05/24 20:41:58;;;;;;;15.10;6.20;;;;;;;;;;6277432;22;20060;-87
2023/05/24 20:44:24;;;;;;;10.85;6.68;;;;;;;;;;6277628;22;20015;-87
2023/05/24 20:46:50;;;;;;;10.90;5.80;;;;;;;;;;6276776;22;20320;-87
2023/05/24 20:49:16;;;;;;;16.60;6.43;;;;;;;;;;6253126;22;20018;-87
2023/05/24 20:51:42;;;;;;;14.65;6.18;;;;;;;;;;6278915;22;20158;-87
2023/05/24 20:54:08;;;;;;;15.95;6.22;;;;;;;;;;6279077;22;20046;-87
2023/05/24 20:56:34;;;;;;;15.82;5.90;;;;;;;;;;6279412;22;20086;-87
2023/05/24 20:59:01;;;;;;;18.05;5.90;;;;;;;;;;6279145;22;20034;-87
2023/05/24 21:01:27;;;;;;;13.15;5.47;;;;;;;;;;6281360;22;20011;-86
2023/05/24 21:03:52;;;;;;;12.57;5.70;;;;;;;;;;6258926;22;20007;-86
2023/05/24 21:06:19;;;;;;;14.82;5.72;;;;;;;;;;6257872;22;20092;-87
2023/05/24 21:08:45;;;;;;;16.15;5.88;;;;;;;;;;6259041;22;20086;-86
2023/05/24 21:11:12;;;;;;;13.23;5.78;;;;;;;;;;6312277;22;20315;-86
2023/05/24 21:13:39;;;;;;;17.02;7.60;;;;;;;;;;6284598;22;20015;-86
2023/05/24 21:16:05;;;;;;;13.50;7.22;;;;;;;;;;6258513;22;20018;-86
2023/05/24 21:18:32;;;;;;;13.65;5.70;;;;;;;;;;6284942;22;20086;-86
2023/05/24 21:20:58;;;;;;;18.88;9.40;;;;;;;;;;6283837;22;20058;-87
2023/05/24 21:23:24;;;;;;;17.90;8.10;;;;;;;;;;6258504;22;20035;-87
2023/05/24 21:25:50;;;;;;;11.00;6.63;;;;;;;;;;6311266;22;20015;-86
2023/05/24 21:28:17;;;;;;;16.20;10.25;;;;;;;;;;6312271;22;20076;-86
2023/05/24 21:30:42;;;;;;;16.92;8.65;;;;;;;;;;6283610;22;20007;-87
2023/05/24 21:33:09;;;;;;;17.38;10.82;;;;;;;;;;6311149;22;20041;-87
2023/05/24 21:35:35;;;;;;;16.85;11.07;;;;;;;;;;6256941;22;20497;-87
2023/05/24 21:38:01;;;;;;;19.50;13.70;;;;;;;;;;6284755;22;20460;-86
2023/05/24 21:40:27;;;;;;;22.45;11.57;;;;;;;;;;6311612;22;20111;-87
2023/05/24 21:42:53;;;;;;;25.17;22.90;;;;;;;;;;6284702;22;20063;-84
2023/05/24 21:45:19;;;;;;;31.45;28.45;;;;;;;;;;6257595;22;20031;-86
2023/05/24 21:47:45;;;;;;;31.15;28.60;;;;;;;;;;6258867;22;20015;-87
2023/05/24 21:50:11;;;;;;;30.15;26.95;;;;;;;;;;6311742;22;20099;-86
2023/05/24 21:52:38;;;;;;;25.13;22.52;;;;;;;;;;6257258;22;20335;-87
2023/05/24 21:55:04;;;;;;;27.30;24.45;;;;;;;;;;6284487;22;20007;-87
2023/05/24 21:57:30;;;;;;;31.10;28.40;;;;;;;;;;6284011;22;20095;-87
2023/05/24 21:59:56;;;;;;;27.80;24.95;;;;;;;;;;6284048;22;20449;-86
2023/05/24 22:02:22;;;;;;;24.20;22.02;;;;;;;;;;6283880;22;20038;-87
2023/05/24 22:04:48;;;;;;;21.95;19.65;;;;;;;;;;6257926;22;20015;-87
2023/05/24 22:07:14;;;;;;;25.40;23.25;;;;;;;;;;6283726;22;20012;-87
2023/05/24 22:09:40;;;;;;;28.38;25.88;;;;;;;;;;6284531;22;20007;-86
2023/05/24 22:12:06;;;;;;;26.80;24.40;;;;;;;;;;6284327;22;20094;-87
2023/05/24 22:14:32;;;;;;;30.52;27.95;;;;;;;;;;6257697;22;20015;-87
2023/05/24 22:16:58;;;;;;;29.80;27.02;;;;;;;;;;6283639;22;20041;-87
2023/05/24 22:19:30;;;;;;;30.50;27.40;;;;;;;;;;6284567;22;20011;-88
2023/05/24 22:21:57;;;;;;;29.38;26.17;;;;;;;;;;6258635;22;20042;-87
2023/05/24 22:24:23;;;;;;;28.83;25.98;;;;;;;;;;6284789;22;20109;-86
2023/05/24 22:26:49;;;;;;;29.65;26.70;;;;;;;;;;6259162;22;20019;-87
2023/05/24 22:29:15;;;;;;;33.38;30.33;;;;;;;;;;6258100;22;20007;-87
2023/05/24 22:31:41;;;;;;;32.30;29.52;;;;;;;;;;6259012;22;20011;-87
2023/05/24 22:34:07;;;;;;;31.17;28.55;;;;;;;;;;6283986;22;20096;-87
2023/05/24 22:36:33;;;;;;;33.67;30.55;;;;;;;;;;6283931;22;20039;-87
2023/05/24 22:39:00;;;;;;;35.20;32.05;;;;;;;;;;6258706;22;20011;-85
2023/05/24 22:41:26;;;;;;;31.08;28.35;;;;;;;;;;6258497;22;20086;-86
2023/05/24 22:43:53;;;;;;;26.25;23.80;;;;;;;;;;6310644;22;20011;-87
2023/05/24 22:46:20;;;;;;;31.27;28.33;;;;;;;;;;6282675;22;20035;-85
2023/05/24 22:48:48;;;;;;;33.40;30.10;;;;;;;;;;6258953;22;20090;-87
2023/05/24 22:51:14;;;;;;;29.08;26.58;;;;;;;;;;6311091;22;20019;-87
2023/05/24 22:53:40;;;;;;;31.60;29.10;;;;;;;;;;6283866;22;20275;-87
2023/05/24 22:56:09;;;;;;;33.15;29.85;;;;;;;;;;6285184;22;20308;-85
2023/05/24 22:58:36;;;;;;;30.13;27.63;;;;;;;;;;6258757;22;20334;-87
2023/05/24 23:01:02;;;;;;;30.60;27.90;;;;;;;;;;6311177;22;20011;-87
2023/05/24 23:03:28;;;;;;;26.67;24.40;;;;;;;;;;6283899;22;20071;-87
2023/05/24 23:05:54;;;;;;;28.13;25.38;;;;;;;;;;6283371;22;20038;-85
2023/05/24 23:08:20;;;;;;;26.83;24.25;;;;;;;;;;6283139;22;20398;-87
2023/05/24 23:10:46;;;;;;;24.52;22.15;;;;;;;;;;6283379;22;20012;-86
2023/05/24 23:13:13;;;;;;;29.75;27.20;;;;;;;;;;6284482;22;20090;-87
2023/05/24 23:15:39;;;;;;;28.65;26.23;;;;;;;;;;6258532;22;20394;-87
2023/05/24 23:18:06;;;;;;;24.33;19.40;;;;;;;;;;6284175;22;20022;-87
2023/05/24 23:20:34;;;;;;;21.80;19.27;;;;;;;;;;6258434;22;20162;-87
2023/05/24 23:23:05;;;;;;;21.92;19.63;;;;;;;;;;6284142;22;20011;-87
2023/05/24 23:25:32;;;;;;;24.20;16.45;;;;;;;;;;6311158;22;20039;-87
2023/05/24 23:27:58;;;;;;;23.88;21.15;;;;;;;;;;6311414;22;20011;-87
2023/05/24 23:30:24;;;;;;;17.67;15.95;;;;;;;;;;6283962;22;20012;-87
2023/05/24 23:32:50;;;;;;;22.70;18.38;;;;;;;;;;6312073;22;20018;-87
2023/05/24 23:35:16;;;;;;;20.75;18.55;;;;;;;;;;6284045;22;20011;-86
2023/05/24 23:37:42;;;;;;;21.95;19.27;;;;;;;;;;6284478;22;20017;-87
2023/05/24 23:40:09;;;;;;;24.02;18.27;;;;;;;;;;6283849;22;20039;-87
2023/05/24 23:42:35;;;;;;;18.55;16.45;;;;;;;;;;6310335;22;20018;-86
2023/05/24 23:45:01;;;;;;;25.30;22.35;;;;;;;;;;6258860;22;20022;-86
2023/05/24 23:47:27;;;;;;;20.67;16.48;;;;;;;;;;6283053;22;20015;-87
2023/05/24 23:49:53;;;;;;;19.88;17.95;;;;;;;;;;6283636;22;20038;-87
2023/05/24 23:52:19;;;;;;;22.33;20.13;;;;;;;;;;6310796;22;20016;-87
2023/05/24 23:54:46;;;;;;;24.15;21.25;;;;;;;;;;6310744;22;20099;-86
2023/05/24 23:57:13;;;;;;;27.08;20.17;;;;;;;;;;6311810;22;20019;-87
2023/05/24 23:59:39;;;;;;;20.98;15.73;;;;;;;;;;6310508;22;20011;-87
